Time;durP1;ratioP1;P1;durP2;ratioP2;P2;SDS_P1;SDS_P2;PMS_P1;PMS_P2;Temp;Humidity;BMP_temperature;BMP_pressure;BME280_temperature;BME280_humidity;BME280_pressure;Samples;Min_cycle;Max_cycle;Signal;HPM_P1;HPM_P2
2021/03/13 00:02:26;;;;;;;4.03;1.27;;;10.70;29.00;;;;;;10451914;28;20224;-65
2021/03/13 00:07:28;;;;;;;2.67;0.80;;;10.70;28.80;;;;;;10459167;28;20231;-66
2021/03/13 00:12:31;;;;;;;1.70;0.87;;;10.70;28.80;;;;;;10451318;28;20252;-65
2021/03/13 00:17:34;;;;;;;2.23;1.10;;;10.80;28.90;;;;;;10453745;28;20704;-65
2021/03/13 00:22:36;;;;;;;1.10;0.70;;;10.90;28.90;;;;;;10456064;28;20274;-65
2021/03/13 00:27:46;;;;;;;1.60;0.80;;;10.90;28.90;;;;;;10458124;28;20232;-65
2021/03/13 00:32:52;;;;;;;2.27;0.93;;;11.00;29.00;;;;;;10446528;28;20700;-65
2021/03/13 00:37:56;;;;;;;2.07;1.00;;;11.10;29.10;;;;;;10467622;28;20304;-65
2021/03/13 00:43:00;;;;;;;1.60;0.83;;;11.10;29.10;;;;;;10458878;28;20232;-65
2021/03/13 00:48:04;;;;;;;2.27;1.00;;;11.20;29.10;;;;;;10469101;28;20239;-65
2021/03/13 00:53:07;;;;;;;1.83;0.90;;;11.20;29.10;;;;;;10459716;28;20240;-69
2021/03/13 00:58:10;;;;;;;1.87;1.00;;;11.30;29.20;;;;;;10468650;28;20228;-69
2021/03/13 01:03:13;;;;;;;2.27;0.80;;;11.30;29.20;;;;;;10458678;28;20255;-69
2021/03/13 01:08:15;;;;;;;3.30;0.97;;;11.30;29.20;;;;;;10458413;28;20229;-69
2021/03/13 01:13:23;;;;;;;1.47;0.80;;;11.30;29.10;;;;;;10458306;28;20280;-69
2021/03/13 01:18:26;;;;;;;2.50;0.87;;;11.40;29.30;;;;;;10466232;28;20246;-69
2021/03/13 01:23:28;;;;;;;1.67;0.70;;;11.40;29.30;;;;;;10461476;28;20580;-69
2021/03/13 01:28:30;;;;;;;2.93;0.73;;;11.30;29.20;;;;;;10466148;28;20578;-69
2021/03/13 01:33:35;;;;;;;0.93;0.80;;;11.30;29.20;;;;;;10458522;28;20224;-68
2021/03/13 01:38:38;;;;;;;1.67;0.80;;;11.30;29.50;;;;;;10464737;28;20607;-68
2021/03/13 01:43:40;;;;;;;0.97;0.80;;;11.20;29.50;;;;;;10457449;28;20221;-68
2021/03/13 01:48:47;;;;;;;2.17;0.80;;;11.20;29.70;;;;;;10462152;28;20229;-67
2021/03/13 01:53:50;;;;;;;1.23;0.70;;;11.10;30.00;;;;;;10446025;28;20317;-68
2021/03/13 01:58:52;;;;;;;1.10;0.80;;;11.00;30.00;;;;;;10451131;28;20240;-69
2021/03/13 02:03:58;;;;;;;1.67;0.70;;;11.00;30.10;;;;;;10448594;28;20320;-70
2021/03/13 02:09:07;;;;;;;0.90;0.70;;;10.90;30.40;;;;;;10446304;28;20414;-65
2021/03/13 02:14:17;;;;;;;2.07;1.10;;;10.90;30.40;;;;;;10444881;28;20233;-69
2021/03/13 02:19:50;;;;;;;1.97;1.00;;;10.80;30.60;;;;;;10460668;28;20316;-65
2021/03/13 02:25:03;;;;;;;1.23;1.00;;;10.80;30.70;;;;;;10440993;28;20597;-65
2021/03/13 02:30:12;;;;;;;2.87;1.30;;;10.80;30.80;;;;;;10452249;28;20226;-66
2021/03/13 02:35:18;;;;;;;2.37;0.97;;;10.80;30.60;;;;;;10454483;28;20231;-65
2021/03/13 02:40:26;;;;;;;4.37;1.10;;;10.90;30.60;;;;;;10460841;28;20236;-65
2021/03/13 02:45:31;;;;;;;1.00;0.83;;;10.90;30.60;;;;;;10473719;22;20229;-70
2021/03/13 02:50:34;;;;;;;3.50;1.00;;;10.90;30.60;;;;;;10461951;28;20771;-70
2021/03/13 02:55:37;;;;;;;3.53;1.87;;;10.90;30.40;;;;;;10482364;28;20544;-70
2021/03/13 03:00:42;;;;;;;1.73;1.00;;;10.90;30.40;;;;;;10472342;28;20257;-70
2021/03/13 03:05:46;;;;;;;1.23;0.87;;;10.80;30.40;;;;;;10479328;28;20309;-70
2021/03/13 03:10:49;;;;;;;1.43;1.17;;;10.70;30.30;;;;;;10477937;28;20733;-70
2021/03/13 03:15:54;;;;;;;1.73;1.30;;;10.70;30.20;;;;;;10477312;28;20232;-70
2021/03/13 03:20:58;;;;;;;1.60;1.30;;;10.60;30.10;;;;;;10479212;28;20223;-69
2021/03/13 03:26:00;;;;;;;2.30;1.00;;;10.50;30.30;;;;;;10476937;28;20545;-69
2021/03/13 03:31:04;;;;;;;1.97;1.00;;;10.40;30.10;;;;;;10477847;28;20224;-69
2021/03/13 03:36:07;;;;;;;1.73;0.87;;;10.30;30.80;;;;;;10478823;28;20278;-69
2021/03/13 03:41:09;;;;;;;2.30;0.93;;;10.30;30.30;;;;;;10480459;28;20546;-69
2021/03/13 03:46:13;;;;;;;2.27;1.00;;;10.20;30.30;;;;;;10479195;28;20228;-69
2021/03/13 03:51:16;;;;;;;2.07;1.00;;;10.20;30.40;;;;;;10484146;28;20660;-69
2021/03/13 03:56:20;;;;;;;1.37;1.00;;;10.10;30.40;;;;;;10478621;28;20254;-70
2021/03/13 04:01:26;;;;;;;1.83;0.80;;;10.10;30.50;;;;;;10480771;28;20244;-70
2021/03/13 04:06:28;;;;;;;2.43;1.33;;;10.10;30.40;;;;;;10484585;28;20224;-69
2021/03/13 04:11:31;;;;;;;1.60;0.80;;;10.10;30.40;;;;;;10478860;28;20228;-69
2021/03/13 04:16:36;;;;;;;1.40;0.80;;;10.10;30.60;;;;;;10485533;28;20220;-69
2021/03/13 04:21:39;;;;;;;2.13;0.90;;;10.00;30.40;;;;;;10487695;28;20252;-69
2021/03/13 04:26:43;;;;;;;2.63;0.90;;;10.00;30.40;;;;;;10486066;28;20260;-69
2021/03/13 04:31:47;;;;;;;1.33;0.80;;;10.00;30.50;;;;;;10488920;28;20221;-69
2021/03/13 04:36:50;;;;;;;2.27;0.80;;;9.90;31.60;;;;;;10489578;28;20217;-69
2021/03/13 04:41:53;;;;;;;2.33;0.97;;;9.90;31.70;;;;;;10485665;28;20232;-69
2021/03/13 04:46:56;;;;;;;1.27;0.70;;;9.80;31.90;;;;;;10481829;28;20228;-69
2021/03/13 04:52:00;;;;;;;3.27;1.00;;;9.80;32.20;;;;;;10482887;28;20282;-69
2021/03/13 04:57:02;;;;;;;1.03;0.77;;;9.80;32.40;;;;;;10490152;28;20252;-69
2021/03/13 05:02:05;;;;;;;1.90;0.90;;;9.70;32.40;;;;;;10486717;28;20530;-69
2021/03/13 05:07:08;;;;;;;1.43;0.90;;;9.70;32.80;;;;;;10482223;28;20730;-69
2021/03/13 05:12:10;;;;;;;1.37;0.83;;;9.70;32.90;;;;;;10490388;28;20232;-69
2021/03/13 05:17:13;;;;;;;1.83;0.80;;;9.70;32.90;;;;;;10479027;28;20308;-69
2021/03/13 05:22:16;;;;;;;1.10;0.93;;;9.70;33.20;;;;;;10485941;28;20271;-69
2021/03/13 05:27:18;;;;;;;2.00;1.10;;;9.60;33.00;;;;;;10488162;28;20236;-69
2021/03/13 05:32:21;;;;;;;1.50;1.00;;;9.70;33.10;;;;;;10488889;28;20228;-69
2021/03/13 05:37:23;;;;;;;1.70;1.10;;;9.60;33.00;;;;;;10483656;28;20224;-69
2021/03/13 05:42:27;;;;;;;1.50;0.93;;;9.60;32.90;;;;;;10481063;28;20343;-69
2021/03/13 05:47:31;;;;;;;1.80;0.77;;;9.70;33.10;;;;;;10486699;28;20661;-69
2021/03/13 05:52:35;;;;;;;1.47;0.80;;;9.70;33.20;;;;;;10481813;28;20224;-69
2021/03/13 05:57:38;;;;;;;1.87;1.07;;;9.60;33.00;;;;;;10488027;28;20708;-69
2021/03/13 06:02:41;;;;;;;2.00;0.90;;;9.70;33.10;;;;;;10481484;28;20605;-69
2021/03/13 06:07:44;;;;;;;1.63;1.00;;;9.70;33.30;;;;;;10480595;28;20225;-68
2021/03/13 06:12:47;;;;;;;1.33;0.90;;;9.70;33.20;;;;;;10483583;28;20220;-68
2021/03/13 06:17:54;;;;;;;0.70;0.70;;;9.70;33.20;;;;;;10476291;28;20301;-68
2021/03/13 06:23:00;;;;;;;0.87;0.70;;;9.70;33.40;;;;;;10479685;28;20224;-68
2021/03/13 06:28:08;;;;;;;2.20;0.90;;;9.80;33.30;;;;;;10484381;28;20562;-68
2021/03/13 06:33:26;;;;;;;1.53;0.80;;;9.80;33.30;;;;;;10480633;28;20228;-68
2021/03/13 06:38:30;;;;;;;1.10;0.87;;;9.80;33.40;;;;;;10474085;28;20256;-68
2021/03/13 06:43:32;;;;;;;0.87;0.60;;;9.90;33.30;;;;;;10483566;28;20308;-68
2021/03/13 06:48:40;;;;;;;1.03;0.70;;;9.90;34.00;;;;;;10476249;28;20220;-68
2021/03/13 06:53:43;;;;;;;2.93;0.80;;;10.00;32.20;;;;;;10477248;28;20243;-68
2021/03/13 06:58:45;;;;;;;1.50;1.00;;;10.10;32.30;;;;;;10484247;28;20303;-68
2021/03/13 07:03:51;;;;;;;1.03;0.80;;;10.20;32.20;;;;;;10482985;28;20228;-68
2021/03/13 07:08:54;;;;;;;1.10;0.80;;;10.30;32.10;;;;;;10482315;28;20926;-68
2021/03/13 07:13:57;;;;;;;1.87;0.90;;;10.40;32.10;;;;;;10482583;28;20232;-68
2021/03/13 07:19:03;;;;;;;1.23;0.80;;;10.60;31.90;;;;;;10482696;28;20231;-68
2021/03/13 07:24:07;;;;;;;2.00;1.03;;;10.70;31.80;;;;;;10487621;28;20228;-68
2021/03/13 07:29:11;;;;;;;2.20;1.00;;;10.80;31.30;;;;;;10481170;28;20236;-68
2021/03/13 07:34:19;;;;;;;1.80;1.10;;;10.90;31.50;;;;;;10480220;28;20236;-68
2021/03/13 07:39:23;;;;;;;1.27;0.90;;;11.00;31.10;;;;;;10481821;28;20232;-68
2021/03/13 07:44:26;;;;;;;4.50;0.90;;;11.10;31.20;;;;;;10479755;28;20228;-71
2021/03/13 07:49:32;;;;;;;3.17;1.00;;;11.20;31.20;;;;;;10467095;28;20262;-70
2021/03/13 07:54:38;;;;;;;1.93;0.90;;;11.40;31.20;;;;;;10480476;28;20229;-70
2021/03/13 07:59:43;;;;;;;0.80;0.70;;;11.60;31.10;;;;;;10481536;28;20227;-70
2021/03/13 08:04:57;;;;;;;1.53;0.73;;;11.80;30.60;;;;;;10475465;28;20776;-70
2021/03/13 08:09:59;;;;;;;1.33;1.10;;;11.90;30.30;;;;;;10478059;28;20754;-70
2021/03/13 08:15:01;;;;;;;2.10;1.20;;;12.00;30.20;;;;;;10472101;28;20345;-69
2021/03/13 08:20:07;;;;;;;1.23;0.80;;;12.10;30.00;;;;;;10481413;28;20220;-69
2021/03/13 08:25:27;;;;;;;1.43;0.73;;;12.20;29.80;;;;;;10479613;28;20236;-69
2021/03/13 08:30:29;;;;;;;0.67;0.67;;;12.20;29.80;;;;;;10479472;28;20232;-71
2021/03/13 08:35:34;;;;;;;2.80;0.80;;;12.30;29.90;;;;;;10483712;28;20603;-69
2021/03/13 08:40:44;;;;;;;1.57;0.90;;;12.30;29.90;;;;;;10476594;28;20574;-69
2021/03/13 08:45:46;;;;;;;1.80;1.00;;;12.30;29.70;;;;;;10479457;28;20707;-69
2021/03/13 08:50:53;;;;;;;1.20;0.90;;;12.40;29.80;;;;;;10482716;28;20229;-69
2021/03/13 08:55:56;;;;;;;1.90;0.80;;;12.40;29.30;;;;;;10480027;28;20220;-70
2021/03/13 09:01:14;;;;;;;3.13;1.30;;;12.40;29.50;;;;;;10486222;28;20227;-71
2021/03/13 09:06:19;;;;;;;1.83;0.90;;;12.40;28.50;;;;;;10483675;28;20296;-70
2021/03/13 09:11:28;;;;;;;1.00;0.70;;;12.50;29.40;;;;;;10482484;28;20232;-70
2021/03/13 09:16:35;;;;;;;1.63;1.27;;;12.60;29.10;;;;;;10485779;28;20228;-71
2021/03/13 09:21:44;;;;;;;1.47;0.97;;;12.70;29.00;;;;;;10482725;28;20220;-71
2021/03/13 09:26:52;;;;;;;1.27;0.90;;;12.80;28.70;;;;;;10483870;28;20250;-70
2021/03/13 09:31:56;;;;;;;0.93;0.80;;;12.80;28.20;;;;;;10487838;28;20224;-70
2021/03/13 09:37:09;;;;;;;1.90;0.93;;;12.80;28.60;;;;;;10476194;28;20624;-68
2021/03/13 09:42:14;;;;;;;1.33;1.10;;;12.80;28.40;;;;;;10486845;28;20315;-70
2021/03/13 09:47:20;;;;;;;0.73;0.70;;;12.90;28.90;;;;;;10480674;28;20224;-69
2021/03/13 09:52:29;;;;;;;0.97;0.67;;;12.90;28.60;;;;;;10488857;28;20259;-71
2021/03/13 09:57:31;;;;;;;1.03;0.70;;;13.00;28.30;;;;;;10482853;28;20221;-71
2021/03/13 10:02:34;;;;;;;1.13;1.00;;;13.10;28.40;;;;;;10488880;28;20311;-70
2021/03/13 10:07:39;;;;;;;1.67;0.70;;;13.20;28.20;;;;;;10476488;28;20279;-69
2021/03/13 10:12:45;;;;;;;2.60;0.90;;;13.20;27.50;;;;;;10482540;28;20228;-71
2021/03/13 10:17:56;;;;;;;0.90;0.80;;;13.30;27.30;;;;;;10479454;28;20227;-71
2021/03/13 10:23:08;;;;;;;3.80;0.80;;;13.30;26.40;;;;;;10472848;28;20251;-71
2021/03/13 10:28:12;;;;;;;2.00;1.03;;;13.40;25.80;;;;;;10480755;28;20231;-71
2021/03/13 10:33:15;;;;;;;1.17;0.90;;;13.40;26.70;;;;;;10476609;28;20655;-71
2021/03/13 10:38:19;;;;;;;1.57;0.80;;;13.40;27.30;;;;;;10480460;28;20583;-71
2021/03/13 10:43:24;;;;;;;2.20;2.00;;;13.50;27.20;;;;;;10481429;28;20625;-71
2021/03/13 10:48:29;;;;;;;3.10;2.13;;;13.50;27.10;;;;;;10478098;28;20239;-71
2021/03/13 10:53:36;;;;;;;1.30;1.10;;;13.60;26.70;;;;;;10480551;28;20227;-72
2021/03/13 10:58:46;;;;;;;1.20;1.00;;;13.60;26.00;;;;;;10468264;28;20222;-71
2021/03/13 11:03:49;;;;;;;1.43;1.10;;;13.60;26.50;;;;;;10479101;28;20256;-74
2021/03/13 11:08:53;;;;;;;1.30;1.00;;;13.60;26.20;;;;;;10483696;28;20237;-71
2021/03/13 11:14:02;;;;;;;1.73;0.90;;;13.60;26.40;;;;;;10473944;28;20700;-69
2021/03/13 11:19:16;;;;;;;3.90;1.20;;;13.70;26.80;;;;;;10481757;28;20227;-70
2021/03/13 11:24:19;;;;;;;0.97;0.70;;;13.70;26.90;;;;;;10477446;28;20228;-70
2021/03/13 11:29:22;;;;;;;2.80;1.00;;;13.80;26.50;;;;;;10481857;28;20341;-70
2021/03/13 11:34:24;;;;;;;1.27;0.80;;;13.90;26.60;;;;;;10486803;28;20227;-70
2021/03/13 11:39:27;;;;;;;1.70;0.97;;;14.00;26.30;;;;;;10486132;28;20224;-70
2021/03/13 11:44:37;;;;;;;0.67;0.60;;;14.10;26.70;;;;;;10484557;28;20668;-70
2021/03/13 11:49:39;;;;;;;0.70;0.60;;;14.10;26.00;;;;;;10476520;28;20309;-72
2021/03/13 11:54:42;;;;;;;2.37;0.80;;;14.20;26.00;;;;;;10483188;28;20225;-72
2021/03/13 11:59:45;;;;;;;3.43;0.83;;;14.30;25.30;;;;;;10480057;28;20220;-71
2021/03/13 12:04:48;;;;;;;1.53;0.87;;;14.30;25.40;;;;;;10476882;28;20612;-72
2021/03/13 12:09:51;;;;;;;1.03;0.70;;;14.40;25.60;;;;;;10478009;28;20235;-71
2021/03/13 12:14:54;;;;;;;0.50;0.50;;;14.50;25.80;;;;;;10478171;28;20235;-72
2021/03/13 12:19:56;;;;;;;0.80;0.70;;;14.50;25.40;;;;;;10477878;28;20217;-72
2021/03/13 12:25:00;;;;;;;1.20;0.60;;;14.60;25.40;;;;;;10471229;28;20654;-72
2021/03/13 12:30:02;;;;;;;0.93;0.80;;;14.60;25.30;;;;;;10478033;28;20225;-71
2021/03/13 12:35:07;;;;;;;0.80;0.80;;;14.70;25.70;;;;;;10480059;28;20221;-70
2021/03/13 12:40:12;;;;;;;0.50;0.50;;;14.80;25.30;;;;;;10481102;28;20231;-71
2021/03/13 12:45:15;;;;;;;0.60;0.60;;;14.90;25.00;;;;;;10490210;28;20708;-71
2021/03/13 12:50:18;;;;;;;0.87;0.60;;;14.90;25.30;;;;;;10481320;28;20220;-71
2021/03/13 12:55:22;;;;;;;0.60;0.60;;;15.00;24.90;;;;;;10485402;28;20251;-71
2021/03/13 13:00:24;;;;;;;1.80;1.00;;;14.90;24.20;;;;;;10483633;28;20240;-71
2021/03/13 13:05:26;;;;;;;1.07;0.70;;;14.90;24.40;;;;;;10481362;28;20235;-71
2021/03/13 13:10:30;;;;;;;0.67;0.60;;;15.00;24.40;;;;;;10482036;28;20228;-71
2021/03/13 13:15:32;;;;;;;0.70;0.70;;;15.00;24.10;;;;;;10488228;28;20266;-72
2021/03/13 13:20:34;;;;;;;1.00;0.70;;;15.00;23.90;;;;;;10476274;28;20231;-72
2021/03/13 13:25:37;;;;;;;1.90;1.00;;;15.00;23.90;;;;;;10485309;28;20217;-71
2021/03/13 13:30:41;;;;;;;0.63;0.60;;;14.90;24.00;;;;;;10479324;28;20217;-72
2021/03/13 13:35:45;;;;;;;0.97;0.60;;;15.00;24.10;;;;;;10480107;28;20224;-72
2021/03/13 13:40:49;;;;;;;0.63;0.50;;;15.00;23.60;;;;;;10487773;28;20255;-71
2021/03/13 13:45:51;;;;;;;1.57;0.67;;;15.00;23.10;;;;;;10485558;28;20220;-72
2021/03/13 13:50:54;;;;;;;1.83;0.80;;;15.00;23.20;;;;;;10480205;28;20235;-72
2021/03/13 13:55:56;;;;;;;0.50;0.50;;;15.00;23.80;;;;;;10486801;28;20227;-72
2021/03/13 14:00:59;;;;;;;1.13;0.73;;;15.00;23.00;;;;;;10477518;28;20228;-72
2021/03/13 14:06:01;;;;;;;0.80;0.70;;;15.00;23.00;;;;;;10486411;28;20224;-71
2021/03/13 14:11:05;;;;;;;1.60;0.60;;;15.10;23.30;;;;;;10473711;28;20604;-72
2021/03/13 14:16:07;;;;;;;3.03;0.60;;;15.10;23.30;;;;;;10484012;28;20339;-71
2021/03/13 14:21:09;;;;;;;2.50;0.57;;;15.20;23.50;;;;;;10480119;28;20319;-71
2021/03/13 14:26:13;;;;;;;1.70;0.50;;;15.20;23.40;;;;;;10478467;28;20221;-71
2021/03/13 14:31:15;;;;;;;0.60;0.50;;;15.20;23.30;;;;;;10474745;28;20303;-71
2021/03/13 14:36:18;;;;;;;0.60;0.60;;;15.20;23.50;;;;;;10476516;28;20301;-72
2021/03/13 14:41:21;;;;;;;1.13;0.63;;;15.10;23.70;;;;;;10479698;28;20232;-72
2021/03/13 14:46:23;;;;;;;0.63;0.60;;;15.10;23.90;;;;;;10508170;22;20225;-76
2021/03/13 14:51:26;;;;;;;0.60;0.60;;;15.10;24.10;;;;;;10456163;28;20259;-76
2021/03/13 14:56:29;;;;;;;1.33;0.50;;;15.20;24.30;;;;;;10469074;28;20239;-73
2021/03/13 15:01:31;;;;;;;0.50;0.50;;;15.20;24.10;;;;;;10476934;28;20232;-72
2021/03/13 15:06:33;;;;;;;1.80;0.70;;;15.20;24.10;;;;;;10481479;28;20263;-72
2021/03/13 15:11:37;;;;;;;0.50;0.50;;;15.10;24.20;;;;;;10475860;28;20220;-72
2021/03/13 15:16:39;;;;;;;0.80;0.50;;;15.10;24.10;;;;;;10480058;28;20752;-73
2021/03/13 15:21:41;;;;;;;0.50;0.50;;;15.10;24.00;;;;;;10475462;28;20228;-72
2021/03/13 15:26:44;;;;;;;0.67;0.60;;;15.10;23.90;;;;;;10473783;28;20252;-72
2021/03/13 15:31:48;;;;;;;1.60;0.50;;;15.10;24.00;;;;;;10484210;28;20220;-72
2021/03/13 15:36:50;;;;;;;2.63;0.70;;;15.10;23.90;;;;;;10472470;28;20221;-72
2021/03/13 15:41:54;;;;;;;1.37;0.70;;;15.00;24.00;;;;;;10481624;28;20224;-71
2021/03/13 15:46:56;;;;;;;0.60;0.60;;;15.00;24.10;;;;;;10474974;28;20583;-72
2021/03/13 15:51:58;;;;;;;0.47;0.47;;;14.90;25.10;;;;;;10470219;28;20708;-75
2021/03/13 15:57:01;;;;;;;0.60;0.60;;;14.40;27.00;;;;;;10479180;28;20230;-75
2021/03/13 16:02:04;;;;;;;2.93;2.00;;;13.70;27.20;;;;;;10474918;28;20224;-76
2021/03/13 16:07:06;;;;;;;1.33;1.17;;;12.90;28.10;;;;;;10483999;28;20221;-76
2021/03/13 16:12:10;;;;;;;1.60;1.50;;;12.30;28.30;;;;;;10485150;28;20232;-76
2021/03/13 16:17:12;;;;;;;0.90;0.90;;;11.90;29.00;;;;;;10487766;28;20234;-76
2021/03/13 16:22:14;;;;;;;0.60;0.60;;;11.60;29.20;;;;;;10481975;28;20228;-76
2021/03/13 16:27:18;;;;;;;1.20;0.60;;;11.40;29.30;;;;;;10478027;28;20220;-76
2021/03/13 16:32:20;;;;;;;0.57;0.57;;;11.10;29.80;;;;;;10478147;28;20575;-72
2021/03/13 16:37:23;;;;;;;0.50;0.50;;;11.00;29.40;;;;;;10485909;28;20718;-73
2021/03/13 16:42:26;;;;;;;0.73;0.50;;;10.80;30.00;;;;;;10478411;28;20845;-70
2021/03/13 16:47:28;;;;;;;1.97;0.60;;;10.70;30.10;;;;;;10473489;28;20244;-72
2021/03/13 16:52:31;;;;;;;1.63;0.53;;;10.50;29.90;;;;;;10487103;28;20224;-72
2021/03/13 16:57:46;;;;;;;0.80;0.70;;;10.40;29.90;;;;;;10486081;28;20227;-72
2021/03/13 17:02:48;;;;;;;0.50;0.50;;;10.40;30.10;;;;;;10468806;28;20229;-72
2021/03/13 17:07:51;;;;;;;1.80;1.50;;;10.30;30.30;;;;;;10476815;28;20237;-72
2021/03/13 17:12:54;;;;;;;2.20;0.93;;;10.30;30.30;;;;;;10481396;28;20600;-72
2021/03/13 17:17:56;;;;;;;1.40;1.30;;;10.30;30.80;;;;;;10492389;28;20225;-72
2021/03/13 17:22:58;;;;;;;0.90;0.90;;;10.30;30.90;;;;;;10485146;28;20233;-72
2021/03/13 17:28:02;;;;;;;1.30;1.20;;;10.20;30.90;;;;;;10479837;28;20241;-73
2021/03/13 17:33:04;;;;;;;0.90;0.90;;;10.20;31.30;;;;;;10481857;28;20227;-72
2021/03/13 17:38:12;;;;;;;0.63;0.63;;;10.10;30.80;;;;;;10483199;28;20224;-77
2021/03/13 17:43:15;;;;;;;0.60;0.60;;;10.10;30.90;;;;;;10482364;28;20323;-75
2021/03/13 17:48:18;;;;;;;0.50;0.50;;;10.00;31.70;;;;;;10472844;28;20228;-77
2021/03/13 17:53:20;;;;;;;0.80;0.80;;;9.90;32.30;;;;;;10476597;28;20220;-79
2021/03/13 17:58:23;;;;;;;1.30;1.20;;;9.90;32.40;;;;;;10478119;28;20255;-75
2021/03/13 18:03:25;;;;;;;1.20;1.10;;;9.80;33.10;;;;;;10481493;28;20228;-76
2021/03/13 18:08:29;;;;;;;0.90;0.90;;;9.70;32.90;;;;;;10480809;28;20231;-75
2021/03/13 18:13:32;;;;;;;0.70;0.70;;;9.70;32.80;;;;;;10480785;28;20285;-74
2021/03/13 18:18:34;;;;;;;1.20;1.10;;;9.60;33.30;;;;;;10480941;28;20279;-74
2021/03/13 18:23:37;;;;;;;1.17;1.10;;;9.60;32.90;;;;;;10474538;28;20239;-75
2021/03/13 18:28:40;;;;;;;0.83;0.83;;;9.70;33.30;;;;;;10475865;28;20228;-76
2021/03/13 18:33:42;;;;;;;1.83;1.40;;;9.70;33.60;;;;;;10482378;28;20224;-73
2021/03/13 18:38:44;;;;;;;1.10;0.80;;;9.70;33.70;;;;;;10476358;28;20267;-74
2021/03/13 18:43:47;;;;;;;0.93;0.70;;;9.60;33.20;;;;;;10481883;28;20251;-74
2021/03/13 18:48:49;;;;;;;1.40;0.90;;;9.70;33.80;;;;;;10477216;28;20228;-77
2021/03/13 18:53:52;;;;;;;1.00;0.90;;;9.70;33.20;;;;;;10484354;28;20285;-72
2021/03/13 18:58:55;;;;;;;0.60;0.60;;;9.80;33.30;;;;;;10480104;28;20220;-72
2021/03/13 19:03:57;;;;;;;0.77;0.77;;;9.80;33.60;;;;;;10469724;28;20227;-72
2021/03/13 19:08:59;;;;;;;0.97;0.90;;;9.80;33.60;;;;;;10474281;28;20334;-72
2021/03/13 19:14:02;;;;;;;0.60;0.60;;;9.80;33.50;;;;;;10473419;28;20231;-72
2021/03/13 19:19:04;;;;;;;0.77;0.60;;;9.80;33.70;;;;;;10473973;28;20551;-72
2021/03/13 19:24:07;;;;;;;0.70;0.63;;;9.80;33.60;;;;;;10468009;28;20235;-72
2021/03/13 19:29:11;;;;;;;0.63;0.63;;;9.90;33.60;;;;;;10471635;28;21251;-72
2021/03/13 19:34:13;;;;;;;0.80;0.80;;;9.90;33.30;;;;;;10457804;28;20223;-72
2021/03/13 19:39:15;;;;;;;0.67;0.67;;;9.90;33.40;;;;;;10476647;28;20270;-72
2021/03/13 19:44:20;;;;;;;1.03;0.93;;;9.90;33.10;;;;;;10463908;28;20239;-73
2021/03/13 19:49:32;;;;;;;0.70;0.70;;;9.90;33.50;;;;;;10463528;28;20235;-73
2021/03/13 19:54:35;;;;;;;2.10;1.10;;;9.90;34.00;;;;;;10474908;28;20315;-72
2021/03/13 19:59:38;;;;;;;1.33;1.27;;;9.90;33.40;;;;;;10468551;28;20220;-72
2021/03/13 20:04:40;;;;;;;0.90;0.80;;;9.90;33.50;;;;;;10476348;28;20228;-72
2021/03/13 20:09:42;;;;;;;1.00;1.00;;;9.90;33.30;;;;;;10469493;28;20540;-72
2021/03/13 20:14:45;;;;;;;1.00;0.90;;;9.90;33.40;;;;;;10468055;28;20725;-71
2021/03/13 20:19:48;;;;;;;0.60;0.60;;;9.90;33.60;;;;;;10467902;28;20216;-71
2021/03/13 20:24:50;;;;;;;0.80;0.80;;;9.90;33.60;;;;;;10468394;28;20244;-76
2021/03/13 20:29:54;;;;;;;0.80;0.63;;;9.90;33.60;;;;;;10475681;28;20281;-76
2021/03/13 20:34:57;;;;;;;0.97;0.70;;;9.90;33.80;;;;;;10468510;28;20228;-76
2021/03/13 20:40:00;;;;;;;0.70;0.70;;;9.80;33.70;;;;;;10468537;28;20290;-76
2021/03/13 20:45:04;;;;;;;0.50;0.50;;;9.80;33.80;;;;;;10466070;22;786991;-72
2021/03/13 20:50:08;;;;;;;0.67;0.67;;;9.80;34.00;;;;;;10466829;28;20256;-71
2021/03/13 20:55:11;;;;;;;0.70;0.70;;;9.80;34.20;;;;;;10475451;28;20604;-72
2021/03/13 21:00:15;;;;;;;0.50;0.50;;;9.70;34.00;;;;;;10482941;28;20224;-74
2021/03/13 21:05:18;;;;;;;0.70;0.70;;;9.70;34.60;;;;;;10485698;28;20325;-74
2021/03/13 21:10:20;;;;;;;0.70;0.70;;;9.60;34.10;;;;;;10472379;28;20246;-74
2021/03/13 21:15:23;;;;;;;0.70;0.67;;;9.70;34.10;;;;;;10477233;28;20241;-72
2021/03/13 21:20:26;;;;;;;0.60;0.60;;;9.70;34.50;;;;;;10491914;28;20225;-72
2021/03/13 21:25:28;;;;;;;0.60;0.60;;;9.80;34.10;;;;;;10479215;28;20294;-72
2021/03/13 21:30:31;;;;;;;1.13;0.63;;;9.80;34.10;;;;;;10482919;28;20229;-72
2021/03/13 21:35:33;;;;;;;0.87;0.60;;;9.80;34.20;;;;;;10493617;28;20238;-73
2021/03/13 21:40:35;;;;;;;0.80;0.80;;;9.70;34.40;;;;;;10472179;28;20601;-74
2021/03/13 21:45:38;;;;;;;0.70;0.60;;;9.70;34.30;;;;;;10467754;28;20225;-73
2021/03/13 21:50:41;;;;;;;0.70;0.70;;;9.70;34.50;;;;;;10472548;28;20316;-72
2021/03/13 21:55:43;;;;;;;0.90;0.60;;;9.70;34.30;;;;;;10471631;28;20802;-73
2021/03/13 22:00:46;;;;;;;1.37;0.80;;;9.70;34.40;;;;;;10462491;28;20304;-73
2021/03/13 22:05:49;;;;;;;1.07;0.67;;;9.70;34.60;;;;;;10483313;28;20621;-73
2021/03/13 22:10:51;;;;;;;0.60;0.60;;;9.60;34.50;;;;;;10466067;28;20621;-72
2021/03/13 22:15:54;;;;;;;1.07;0.70;;;9.60;34.60;;;;;;10474424;28;20784;-72
2021/03/13 22:20:56;;;;;;;1.00;0.80;;;9.60;34.90;;;;;;10481182;28;20230;-72
2021/03/13 22:25:58;;;;;;;0.60;0.60;;;9.50;34.60;;;;;;10470505;28;20320;-72
2021/03/13 22:31:02;;;;;;;0.90;0.80;;;9.50;35.00;;;;;;10463281;28;20236;-72
2021/03/13 22:36:04;;;;;;;0.63;0.60;;;9.40;35.40;;;;;;10471333;28;20709;-72
2021/03/13 22:41:07;;;;;;;1.60;0.70;;;9.40;35.10;;;;;;10476874;28;20239;-72
2021/03/13 22:46:10;;;;;;;0.77;0.70;;;9.50;35.20;;;;;;10479355;28;20336;-72
2021/03/13 22:51:17;;;;;;;1.30;0.90;;;9.50;35.40;;;;;;10469719;28;20224;-72
2021/03/13 22:56:19;;;;;;;0.60;0.60;;;9.50;35.10;;;;;;10484820;28;20251;-72
2021/03/13 23:01:22;;;;;;;1.50;0.60;;;9.60;35.60;;;;;;10469263;28;20252;-72
2021/03/13 23:06:25;;;;;;;1.03;0.87;;;9.60;35.90;;;;;;10471015;28;20757;-72
2021/03/13 23:11:29;;;;;;;1.53;0.90;;;9.50;34.90;;;;;;10460824;28;20228;-72
2021/03/13 23:16:33;;;;;;;0.67;0.60;;;9.30;35.00;;;;;;10461749;28;20233;-72
2021/03/13 23:21:35;;;;;;;1.10;0.80;;;9.20;35.20;;;;;;10475668;28;20224;-72
2021/03/13 23:26:37;;;;;;;1.03;0.80;;;9.10;35.10;;;;;;10439179;22;20230;-71
2021/03/13 23:31:41;;;;;;;1.23;0.70;;;9.00;35.20;;;;;;10392390;28;20304;-71
2021/03/13 23:36:43;;;;;;;1.00;0.80;;;9.00;35.80;;;;;;10387309;28;20234;-70
2021/03/13 23:41:46;;;;;;;1.60;0.80;;;8.90;35.50;;;;;;10484851;22;20235;-69
2021/03/13 23:46:50;;;;;;;1.30;0.87;;;9.00;35.60;;;;;;10485759;28;20311;-69
2021/03/13 23:51:53;;;;;;;0.70;0.70;;;9.00;36.00;;;;;;10511701;28;20223;-69
2021/03/13 23:56:55;;;;;;;0.70;0.70;;;8.90;35.50;;;;;;10498614;28;20224;-69
